Time;durP1;ratioP1;P1;durP2;ratioP2;P2;SDS_P1;SDS_P2;PMS_P1;PMS_P2;Temp;Humidity;BMP_temperature;BMP_pressure;BME280_temperature;BME280_humidity;BME280_pressure;Samples;Min_cycle;Max_cycle;Signal;HPM_P1;HPM_P2
2023/06/01 00:01:51;;;;;;;21.17;13.98;;;460.90;2380.80;;;;;;5057572;28;20025;-85
2023/06/01 00:04:19;;;;;;;22.83;12.10;;;460.90;2380.80;;;;;;5056545;28;20032;-85
2023/06/01 00:06:45;;;;;;;26.40;14.38;;;460.90;2380.80;;;;;;5056629;28;20027;-83
2023/06/01 00:09:11;;;;;;;26.17;13.98;;;460.90;2380.80;;;;;;5055924;28;20037;-82
2023/06/01 00:11:37;;;;;;;21.27;13.38;;;460.80;2380.80;;;;;;5056130;28;20031;-82
2023/06/01 00:14:03;;;;;;;19.55;12.82;;;460.90;2380.80;;;;;;5056427;28;20033;-83
2023/06/01 00:16:30;;;;;;;19.40;13.93;;;460.90;2380.80;;;;;;5054964;28;20477;-83
2023/06/01 00:18:56;;;;;;;19.75;13.15;;;460.90;2380.80;;;;;;5056933;28;20376;-83
2023/06/01 00:21:23;;;;;;;20.48;12.02;;;460.90;2380.80;;;;;;5057538;28;20526;-83
2023/06/01 00:23:49;;;;;;;27.95;13.10;;;436.10;2355.20;;;;;;5057769;28;20032;-85
2023/06/01 00:26:15;;;;;;;22.08;13.65;;;436.10;2355.20;;;;;;5055931;28;20025;-82
2023/06/01 00:28:41;;;;;;;22.15;13.15;;;460.80;2022.40;;;;;;5056012;28;20028;-83
2023/06/01 00:31:07;;;;;;;28.15;13.85;;;460.80;2150.40;;;;;;5057255;28;20063;-82
2023/06/01 00:33:33;;;;;;;15.77;10.73;;;436.10;2355.20;;;;;;5055703;28;20061;-82
2023/06/01 00:35:59;;;;;;;23.42;11.75;;;460.80;2380.80;;;;;;5056093;28;20064;-83
2023/06/01 00:38:25;;;;;;;17.73;11.10;;;436.10;1996.80;;;;;;5055850;28;20483;-82
2023/06/01 00:40:51;;;;;;;18.40;11.65;;;460.80;2227.20;;;;;;5055547;28;20021;-83
2023/06/01 00:43:17;;;;;;;18.42;11.15;;;460.80;2099.20;;;;;;5055711;28;20067;-83
2023/06/01 00:45:43;;;;;;;25.23;13.40;;;460.90;2380.80;;;;;;5055465;28;20040;-84
2023/06/01 00:48:10;;;;;;;22.35;12.20;;;460.90;2099.20;;;;;;5056416;28;20563;-81
2023/06/01 00:50:36;;;;;;;20.90;12.32;;;460.90;2380.80;;;;;;5055262;28;20035;-82
2023/06/01 00:53:05;;;;;;;22.10;13.60;;;460.90;2380.80;;;;;;5055285;28;20131;-81
2023/06/01 00:55:31;;;;;;;21.85;14.68;;;460.90;2380.80;;;;;;5056572;28;20021;-82
2023/06/01 00:57:57;;;;;;;30.73;16.30;;;460.80;2380.80;;;;;;5055584;28;20032;-83
2023/06/01 01:00:26;;;;;;;26.38;15.82;;;436.10;2355.20;;;;;;5055280;28;20476;-84
2023/06/01 01:02:52;;;;;;;26.48;16.30;;;436.10;2355.20;;;;;;5055436;28;20118;-84
2023/06/01 01:05:19;;;;;;;29.05;15.45;;;436.10;2355.20;;;;;;5055346;28;20049;-81
2023/06/01 01:08:12;;;;;;;26.38;15.57;;;460.80;2380.80;;;;;;5055155;28;20027;-82
2023/06/01 01:11:04;;;;;;;20.67;13.13;;;460.80;2380.80;;;;;;5056558;28;20067;-84
2023/06/01 01:13:48;;;;;;;22.60;13.50;;;460.80;2380.80;;;;;;5054455;28;20041;-83
2023/06/01 01:16:41;;;;;;;18.40;11.98;;;460.80;2380.80;;;;;;5055007;28;20029;-83
2023/06/01 01:19:42;;;;;;;19.20;11.77;;;460.80;2380.80;;;;;;5036046;28;20033;-82
2023/06/01 01:22:26;;;;;;;16.90;11.43;;;436.10;2355.20;;;;;;5056370;28;20032;-82
2023/06/01 01:25:10;;;;;;;17.17;11.73;;;460.80;2380.80;;;;;;5056136;28;20032;-82
2023/06/01 01:28:10;;;;;;;17.35;11.65;;;460.80;2380.80;;;;;;5055191;28;20570;-83
2023/06/01 01:30:41;;;;;;;27.77;15.05;;;460.80;2380.80;;;;;;5055985;28;20029;-83
2023/06/01 01:33:09;;;;;;;30.00;15.88;;;436.10;2355.20;;;;;;5055010;28;20140;-82
2023/06/01 01:35:36;;;;;;;29.00;15.73;;;436.10;2355.20;;;;;;5055765;28;20036;-82
2023/06/01 01:38:02;;;;;;;33.50;16.15;;;436.10;2355.20;;;;;;5054864;28;20028;-82
2023/06/01 01:40:28;;;;;;;24.17;14.88;;;436.10;2355.20;;;;;;5054674;28;20063;-83
2023/06/01 01:42:54;;;;;;;24.80;14.57;;;436.00;2355.20;;;;;;5055590;28;20021;-82
2023/06/01 01:45:21;;;;;;;26.35;15.00;;;436.00;2355.20;;;;;;5054651;28;20025;-82
2023/06/01 01:47:58;;;;;;;32.53;14.95;;;436.10;2278.40;;;;;;5055906;28;20036;-82
2023/06/01 01:50:30;;;;;;;28.35;16.48;;;436.00;2355.20;;;;;;5054366;28;20029;-83
2023/06/01 01:52:56;;;;;;;25.10;16.85;;;436.00;2355.20;;;;;;5056140;28;20162;-82
2023/06/01 01:55:24;;;;;;;32.03;18.33;;;435.90;2355.20;;;;;;5055500;28;20486;-82
2023/06/01 01:57:55;;;;;;;25.77;15.75;;;435.90;2355.20;;;;;;5054257;28;20049;-83
2023/06/01 02:00:22;;;;;;;28.33;15.53;;;435.90;2355.20;;;;;;5055781;28;20029;-84
2023/06/01 02:02:48;;;;;;;22.35;13.68;;;435.90;2355.20;;;;;;5054509;28;20063;-83
2023/06/01 02:05:14;;;;;;;25.65;15.52;;;435.90;2355.20;;;;;;5053913;28;20139;-82
2023/06/01 02:07:40;;;;;;;25.52;14.98;;;435.90;2355.20;;;;;;5054163;28;20029;-85
2023/06/01 02:10:06;;;;;;;26.73;15.57;;;435.90;2355.20;;;;;;5053808;28;20028;-80
2023/06/01 02:12:32;;;;;;;29.30;15.50;;;436.00;2355.20;;;;;;5054170;28;20196;-81
2023/06/01 02:14:58;;;;;;;23.83;15.13;;;436.10;2355.20;;;;;;5054131;28;20029;-80
2023/06/01 02:17:26;;;;;;;25.67;14.68;;;436.10;2355.20;;;;;;5053855;28;20036;-83
2023/06/01 02:19:52;;;;;;;24.38;14.38;;;436.10;2355.20;;;;;;5054145;28;20508;-84
2023/06/01 02:22:18;;;;;;;20.25;14.18;;;436.00;2355.20;;;;;;5053841;28;20025;-83
2023/06/01 02:24:43;;;;;;;25.23;14.60;;;436.10;2355.20;;;;;;5065701;28;20009;-81
2023/06/01 02:27:09;;;;;;;19.70;12.80;;;436.10;2355.20;;;;;;5073853;28;20021;-81
2023/06/01 02:29:35;;;;;;;21.50;12.95;;;436.10;2355.20;;;;;;5054232;28;20040;-83
2023/06/01 02:32:01;;;;;;;18.08;11.73;;;460.80;2380.80;;;;;;5053738;28;20031;-83
2023/06/01 02:34:26;;;;;;;17.98;11.73;;;436.10;2355.20;;;;;;5053673;28;20047;-82
2023/06/01 02:36:55;;;;;;;17.30;11.88;;;460.80;2380.80;;;;;;5053679;28;20055;-83
2023/06/01 02:39:22;;;;;;;18.55;12.15;;;460.90;2380.80;;;;;;5040055;28;20064;-83
2023/06/01 02:41:47;;;;;;;18.83;13.07;;;460.90;2380.80;;;;;;5034817;28;20458;-82
2023/06/01 02:44:13;;;;;;;22.08;13.95;;;460.80;2380.80;;;;;;5034895;28;20026;-82
2023/06/01 02:46:39;;;;;;;21.38;14.35;;;460.80;2380.80;;;;;;5034509;28;20033;-82
2023/06/01 02:49:05;;;;;;;25.15;15.45;;;460.80;2380.80;;;;;;5052506;28;20039;-82
2023/06/01 02:51:31;;;;;;;22.05;14.10;;;460.80;2380.80;;;;;;5053132;28;20036;-85
2023/06/01 02:53:57;;;;;;;21.85;14.13;;;436.10;2355.20;;;;;;5053006;28;20029;-82
2023/06/01 02:56:22;;;;;;;23.40;12.93;;;460.80;2380.80;;;;;;5054730;28;20029;-81
2023/06/01 02:58:49;;;;;;;19.05;12.57;;;436.10;2355.20;;;;;;5054491;28;20028;-81
2023/06/01 03:01:15;;;;;;;20.15;13.30;;;436.10;2355.20;;;;;;5052760;28;20472;-82
2023/06/01 03:03:42;;;;;;;20.10;12.70;;;436.10;2355.20;;;;;;5053115;28;20024;-83
2023/06/01 03:06:08;;;;;;;22.08;12.82;;;436.10;2099.20;;;;;;5052575;28;20084;-83
2023/06/01 03:08:35;;;;;;;17.27;12.95;;;436.10;2355.20;;;;;;5053281;28;20068;-82
2023/06/01 03:11:01;;;;;;;20.02;13.43;;;460.80;2380.80;;;;;;5052738;28;20028;-81
2023/06/01 03:13:28;;;;;;;19.92;13.23;;;436.10;2355.20;;;;;;5052546;28;20465;-84
2023/06/01 03:15:54;;;;;;;24.33;13.93;;;436.10;2355.20;;;;;;5052951;28;20063;-84
2023/06/01 03:18:19;;;;;;;22.85;14.13;;;436.10;2355.20;;;;;;5053555;28;20091;-82
2023/06/01 03:20:47;;;;;;;20.17;13.85;;;436.00;2355.20;;;;;;5054357;28;20452;-83
2023/06/01 03:23:13;;;;;;;21.90;13.43;;;436.10;2355.20;;;;;;5051900;28;20035;-82
2023/06/01 03:25:38;;;;;;;23.13;14.68;;;436.00;2355.20;;;;;;5052178;28;20111;-82
2023/06/01 03:28:05;;;;;;;21.00;13.32;;;436.00;2355.20;;;;;;5052702;28;20033;-83
2023/06/01 03:30:31;;;;;;;20.15;13.38;;;435.80;2355.20;;;;;;5053908;28;20579;-82
2023/06/01 03:32:57;;;;;;;23.95;13.85;;;435.90;2355.20;;;;;;5052690;28;20127;-82
2023/06/01 03:35:23;;;;;;;25.27;15.43;;;435.90;2355.20;;;;;;5053588;28;20496;-79
2023/06/01 03:37:48;;;;;;;23.33;14.60;;;435.80;2355.20;;;;;;5053334;28;20468;-79
2023/06/01 03:40:14;;;;;;;21.00;13.38;;;435.90;2355.20;;;;;;5053198;28;20029;-79
2023/06/01 03:42:46;;;;;;;21.52;15.10;;;436.00;2355.20;;;;;;5054416;28;20113;-80
2023/06/01 03:45:12;;;;;;;23.70;15.35;;;436.00;2355.20;;;;;;5053220;28;20035;-79
2023/06/01 03:47:39;;;;;;;27.38;16.58;;;436.10;2304.00;;;;;;5053400;28;20040;-80
2023/06/01 03:50:07;;;;;;;22.92;15.32;;;435.90;2355.20;;;;;;5054235;28;20028;-80
2023/06/01 03:52:33;;;;;;;20.33;13.98;;;435.80;2355.20;;;;;;5053161;28;20083;-83
2023/06/01 03:55:04;;;;;;;19.23;13.55;;;436.00;2355.20;;;;;;5052311;28;20056;-83
2023/06/01 03:57:30;;;;;;;20.60;14.50;;;436.00;2355.20;;;;;;5052645;28;20112;-83
2023/06/01 03:59:56;;;;;;;24.60;13.70;;;436.00;2355.20;;;;;;5053830;28;20025;-83
2023/06/01 04:02:22;;;;;;;20.08;13.05;;;436.10;1971.20;;;;;;5052104;28;20029;-82
2023/06/01 04:04:48;;;;;;;18.40;12.35;;;436.00;2355.20;;;;;;5052104;28;20053;-82
2023/06/01 04:07:18;;;;;;;19.05;11.85;;;436.00;2355.20;;;;;;5052380;28;20504;-83
2023/06/01 04:09:44;;;;;;;16.42;12.23;;;436.10;2355.20;;;;;;5052156;28;20040;-83
2023/06/01 04:12:10;;;;;;;15.45;10.43;;;436.10;2355.20;;;;;;5053391;28;20469;-82
2023/06/01 04:14:36;;;;;;;17.65;11.15;;;436.10;2355.20;;;;;;5053603;28;20017;-82
2023/06/01 04:17:03;;;;;;;17.35;10.82;;;436.10;2355.20;;;;;;5052064;28;20148;-82
2023/06/01 04:19:28;;;;;;;16.67;10.60;;;460.80;2124.80;;;;;;5052650;28;20029;-84
2023/06/01 04:21:56;;;;;;;16.38;9.88;;;460.80;2380.80;;;;;;5052442;28;20427;-83
2023/06/01 04:24:21;;;;;;;18.02;10.93;;;460.80;2380.80;;;;;;5052288;28;20028;-82
2023/06/01 04:26:47;;;;;;;16.63;10.73;;;460.80;2380.80;;;;;;5053387;28;20052;-83
2023/06/01 04:29:13;;;;;;;14.23;9.98;;;436.10;2227.20;;;;;;5052066;28;20037;-84
2023/06/01 04:31:39;;;;;;;14.63;11.18;;;436.10;2355.20;;;;;;5051675;28;20063;-84
2023/06/01 04:34:05;;;;;;;17.88;12.38;;;460.80;2380.80;;;;;;5052075;28;20132;-84
2023/06/01 04:36:39;;;;;;;19.35;13.15;;;460.90;2380.80;;;;;;5052238;28;20029;-83
2023/06/01 04:39:06;;;;;;;17.92;12.85;;;460.90;2380.80;;;;;;5051819;28;20408;-83
2023/06/01 04:41:34;;;;;;;22.17;14.68;;;460.90;2380.80;;;;;;5052029;28;20025;-81
2023/06/01 04:44:05;;;;;;;19.25;14.90;;;460.90;2380.80;;;;;;5053027;28;20028;-84
2023/06/01 04:46:31;;;;;;;19.60;16.02;;;460.90;2380.80;;;;;;5053193;28;20529;-84
2023/06/01 04:48:58;;;;;;;22.27;16.25;;;460.80;2380.80;;;;;;5055652;28;20025;-83
2023/06/01 04:51:24;;;;;;;21.48;15.32;;;460.90;2380.80;;;;;;5055188;28;20392;-83
2023/06/01 04:53:52;;;;;;;21.58;17.80;;;460.90;2099.20;;;;;;5056921;28;20025;-84
2023/06/01 04:56:28;;;;;;;26.80;18.10;;;460.90;2048.00;;;;;;5055651;28;20058;-85
2023/06/01 04:58:55;;;;;;;27.88;19.20;;;460.90;2380.80;;;;;;5055628;28;20032;-83
2023/06/01 05:01:24;;;;;;;29.60;19.55;;;460.90;2380.80;;;;;;5056919;28;20036;-83
2023/06/01 05:03:52;;;;;;;28.55;19.42;;;460.80;2150.40;;;;;;5055562;28;20056;-83
2023/06/01 05:06:20;;;;;;;33.05;17.83;;;460.80;2227.20;;;;;;5056259;28;20124;-83
2023/06/01 05:08:45;;;;;;;28.92;17.58;;;436.10;2355.20;;;;;;5055661;28;20075;-83
2023/06/01 05:11:11;;;;;;;27.25;17.52;;;436.10;2124.80;;;;;;5056759;28;20415;-83
2023/06/01 05:13:41;;;;;;;37.30;19.85;;;460.80;2380.80;;;;;;5055185;28;20021;-83
2023/06/01 05:16:08;;;;;;;32.08;19.98;;;436.10;2329.60;;;;;;5055212;28;20051;-84
2023/06/01 05:18:34;;;;;;;32.40;19.70;;;436.10;2355.20;;;;;;5055462;28;20048;-84
2023/06/01 05:21:01;;;;;;;37.03;20.05;;;460.80;2380.80;;;;;;5056438;28;20059;-84
2023/06/01 05:23:27;;;;;;;34.03;18.05;;;460.80;2380.80;;;;;;5055181;28;20025;-83
2023/06/01 05:25:59;;;;;;;28.85;17.58;;;460.90;2380.80;;;;;;5055201;28;20033;-83
2023/06/01 05:28:25;;;;;;;23.38;14.82;;;460.90;2380.80;;;;;;5055229;28;20047;-83
2023/06/01 05:30:51;;;;;;;22.52;16.08;;;460.90;2380.80;;;;;;5055174;28;20536;-84
2023/06/01 05:33:16;;;;;;;23.48;16.05;;;460.90;2380.80;;;;;;5054911;28;20029;-85
2023/06/01 05:35:43;;;;;;;23.08;16.30;;;460.90;2380.80;;;;;;5055149;28;20468;-83
2023/06/01 05:38:09;;;;;;;23.65;17.27;;;461.00;2380.80;;;;;;5054978;28;20033;-82
2023/06/01 05:40:36;;;;;;;19.45;14.30;;;461.00;2380.80;;;;;;5055919;28;20139;-83
2023/06/01 05:43:02;;;;;;;22.42;15.93;;;461.10;2380.80;;;;;;5055046;28;20154;-82
2023/06/01 05:45:27;;;;;;;18.15;13.90;;;461.10;2380.80;;;;;;5054804;28;20518;-82
2023/06/01 05:47:53;;;;;;;22.65;16.02;;;461.10;2380.80;;;;;;5055805;28;20025;-83
2023/06/01 05:50:19;;;;;;;19.55;15.55;;;461.20;2380.80;;;;;;5054644;28;20481;-81
2023/06/01 05:52:45;;;;;;;20.13;17.25;;;461.30;2380.80;;;;;;5054579;28;20037;-82
2023/06/01 05:55:11;;;;;;;18.30;16.33;;;461.30;2380.80;;;;;;5054333;28;20476;-82
2023/06/01 05:57:37;;;;;;;20.98;18.23;;;461.40;2380.80;;;;;;5053621;28;20025;-82
2023/06/01 06:00:09;;;;;;;18.92;15.77;;;461.50;2380.80;;;;;;5054047;28;20086;-83
2023/06/01 06:02:35;;;;;;;17.55;14.45;;;461.50;2380.80;;;;;;5054273;28;20021;-82
2023/06/01 06:05:01;;;;;;;14.98;12.90;;;461.50;2380.80;;;;;;5054028;28;20041;-83
2023/06/01 06:07:26;;;;;;;14.88;11.70;;;461.60;2380.80;;;;;;5054198;28;20024;-82
2023/06/01 06:09:52;;;;;;;12.63;9.25;;;461.60;2380.80;;;;;;5054122;28;20057;-82
2023/06/01 06:12:18;;;;;;;10.60;8.43;;;461.60;2380.80;;;;;;5059343;28;20033;-80
2023/06/01 06:14:44;;;;;;;9.23;7.53;;;461.70;2380.80;;;;;;5079563;28;20025;-81
2023/06/01 06:17:10;;;;;;;10.35;7.60;;;461.70;2380.80;;;;;;5057795;28;20075;-82
2023/06/01 06:19:36;;;;;;;8.25;7.38;;;461.70;2380.80;;;;;;5053955;28;20056;-83
2023/06/01 06:22:01;;;;;;;10.48;7.43;;;486.40;2380.80;;;;;;5053454;28;20032;-81
2023/06/01 06:24:27;;;;;;;8.63;7.32;;;461.70;2380.80;;;;;;5039014;28;20030;-82
2023/06/01 06:26:53;;;;;;;10.85;8.43;;;486.40;2380.80;;;;;;5050567;28;20112;-81
2023/06/01 06:29:19;;;;;;;8.98;7.38;;;486.40;2380.80;;;;;;5050398;28;20037;-81
2023/06/01 06:31:45;;;;;;;9.15;7.70;;;486.40;2380.80;;;;;;5033989;28;20477;-81
2023/06/01 06:34:14;;;;;;;10.02;8.07;;;486.50;2380.80;;;;;;5050402;28;20120;-82
2023/06/01 06:36:40;;;;;;;10.48;7.95;;;486.50;2380.80;;;;;;5034357;28;20430;-82
2023/06/01 06:39:06;;;;;;;8.48;7.13;;;486.50;2380.80;;;;;;5034726;28;20397;-83
2023/06/01 06:41:32;;;;;;;13.10;8.30;;;486.50;2380.80;;;;;;5034612;28;20025;-82
2023/06/01 06:43:57;;;;;;;12.73;9.63;;;486.50;2380.80;;;;;;5034590;28;20458;-82
2023/06/01 06:46:23;;;;;;;13.65;9.25;;;486.50;2380.80;;;;;;5052574;28;20033;-82
2023/06/01 06:48:49;;;;;;;9.25;8.27;;;486.50;2380.80;;;;;;5069254;28;20029;-82
2023/06/01 06:51:15;;;;;;;11.00;9.70;;;486.50;2380.80;;;;;;5069740;28;20067;-83
2023/06/01 06:53:40;;;;;;;11.15;9.05;;;486.50;2380.80;;;;;;5054814;28;20025;-83
2023/06/01 06:56:06;;;;;;;13.35;10.00;;;486.50;2380.80;;;;;;5054616;28;20025;-81
2023/06/01 06:58:32;;;;;;;13.18;9.88;;;486.50;2380.80;;;;;;5053137;28;20025;-83
2023/06/01 07:00:58;;;;;;;15.70;10.35;;;486.50;2380.80;;;;;;5069937;28;20059;-82
2023/06/01 07:03:23;;;;;;;14.52;9.80;;;486.50;2380.80;;;;;;5053234;28;20021;-82
2023/06/01 07:05:49;;;;;;;11.43;9.82;;;486.50;2380.80;;;;;;5069153;28;20052;-82
2023/06/01 07:08:16;;;;;;;14.00;11.05;;;486.50;2380.80;;;;;;5069689;28;20078;-81
2023/06/01 07:10:42;;;;;;;11.75;10.55;;;486.60;2380.80;;;;;;5052636;28;20065;-81
2023/06/01 07:13:07;;;;;;;14.75;11.70;;;486.70;2380.80;;;;;;5053974;28;20021;-83
2023/06/01 07:15:33;;;;;;;17.70;12.18;;;486.70;2380.80;;;;;;5052681;28;20033;-82
2023/06/01 07:17:59;;;;;;;16.80;11.27;;;486.70;2380.80;;;;;;5052757;28;20053;-82
2023/06/01 07:20:25;;;;;;;13.77;12.15;;;486.80;2380.80;;;;;;5052910;28;20025;-83
2023/06/01 07:22:51;;;;;;;12.95;11.60;;;486.80;2380.80;;;;;;5052902;28;20484;-81
2023/06/01 07:25:16;;;;;;;16.55;12.82;;;486.90;2380.80;;;;;;5052551;28;20427;-83
2023/06/01 07:27:45;;;;;;;16.92;12.90;;;486.90;2380.80;;;;;;5044318;28;20116;-82
2023/06/01 07:30:12;;;;;;;17.08;13.50;;;487.00;2380.80;;;;;;5034196;28;20025;-81
2023/06/01 07:32:37;;;;;;;13.43;11.98;;;487.00;2380.80;;;;;;5032541;28;20167;-81
2023/06/01 07:35:06;;;;;;;14.20;12.75;;;487.10;2380.80;;;;;;5032668;28;20520;-81
2023/06/01 07:37:32;;;;;;;14.63;12.38;;;487.00;2380.80;;;;;;5032759;28;20116;-82
2023/06/01 07:39:57;;;;;;;14.38;12.90;;;487.10;2380.80;;;;;;5033977;28;20434;-82
2023/06/01 07:42:23;;;;;;;20.38;12.65;;;487.30;2380.80;;;;;;5032302;28;20055;-82
2023/06/01 07:44:50;;;;;;;14.73;11.60;;;487.20;2380.80;;;;;;5033994;28;20075;-81
2023/06/01 07:47:16;;;;;;;15.88;11.70;;;487.20;2380.80;;;;;;5032212;28;20461;-82
2023/06/01 07:49:42;;;;;;;15.40;11.82;;;487.20;2380.80;;;;;;5032233;28;20074;-82
2023/06/01 07:52:08;;;;;;;14.98;10.57;;;512.00;2380.80;;;;;;5032498;28;20033;-82
2023/06/01 07:54:36;;;;;;;16.40;11.65;;;487.30;2380.80;;;;;;5033212;28;20029;-82
2023/06/01 07:57:04;;;;;;;16.08;11.25;;;487.30;2380.80;;;;;;5033513;28;20033;-81
2023/06/01 07:59:31;;;;;;;18.08;11.30;;;512.00;2380.80;;;;;;5047177;28;20029;-82
2023/06/01 08:01:57;;;;;;;14.50;10.90;;;512.00;2380.80;;;;;;5053351;28;20021;-82
2023/06/01 08:04:24;;;;;;;12.23;9.90;;;512.00;2380.80;;;;;;5052062;28;20110;-82
2023/06/01 08:06:52;;;;;;;10.77;9.70;;;512.00;2380.80;;;;;;5052324;28;20032;-82
2023/06/01 08:09:20;;;;;;;15.20;10.48;;;512.10;2380.80;;;;;;5053566;28;20021;-82
2023/06/01 08:11:46;;;;;;;12.27;10.18;;;487.20;2380.80;;;;;;5053524;28;20048;-81
2023/06/01 08:14:11;;;;;;;15.75;10.52;;;512.00;2380.80;;;;;;5051918;28;20029;-82
2023/06/01 08:16:37;;;;;;;14.05;10.25;;;512.00;2380.80;;;;;;5051993;28;20021;-82
2023/06/01 08:19:03;;;;;;;11.70;9.45;;;512.00;2380.80;;;;;;5053321;28;20451;-83
2023/06/01 08:21:29;;;;;;;14.15;11.48;;;512.00;2380.80;;;;;;5052804;28;20060;-81
2023/06/01 08:23:55;;;;;;;15.60;11.77;;;512.30;2380.80;;;;;;5056312;28;20456;-81
2023/06/01 08:26:22;;;;;;;11.27;10.07;;;512.30;2380.80;;;;;;5056171;28;20047;-81
2023/06/01 08:28:51;;;;;;;14.35;10.73;;;512.70;2380.80;;;;;;5055817;28;20098;-82
2023/06/01 08:31:22;;;;;;;11.82;9.80;;;512.60;2380.80;;;;;;5056117;28;20048;-83
2023/06/01 08:33:48;;;;;;;11.35;9.57;;;512.50;2380.80;;;;;;5056358;28;20021;-83
2023/06/01 08:36:15;;;;;;;12.90;9.43;;;512.30;2380.80;;;;;;5056397;28;20025;-83
2023/06/01 08:38:41;;;;;;;13.55;11.20;;;512.40;2380.80;;;;;;5055984;28;20107;-83
2023/06/01 08:41:40;;;;;;;14.52;11.65;;;512.50;2380.80;;;;;;5056476;28;20044;-81
2023/06/01 08:44:08;;;;;;;16.20;11.27;;;512.70;2380.80;;;;;;5030355;28;20431;-83
2023/06/01 08:46:34;;;;;;;12.95;11.63;;;512.90;2380.80;;;;;;5056253;28;20453;-81
2023/06/01 08:49:01;;;;;;;13.77;11.43;;;;;;;;;;5055757;28;20028;-82
2023/06/01 08:51:28;;;;;;;16.83;11.75;;;;;;;;;;5056098;28;20496;-81
2023/06/01 08:53:56;;;;;;;16.60;11.18;;;;;;;;;;5056367;28;20358;-82
2023/06/01 08:56:23;;;;;;;20.63;12.90;;;;;;;;;;5057539;28;20021;-82
2023/06/01 08:58:50;;;;;;;15.55;13.75;;;;;;;;;;5056004;28;20020;-82
2023/06/01 09:01:21;;;;;;;17.63;13.63;;;;;;;;;;5056190;28;20115;-82
2023/06/01 09:03:51;;;;;;;16.25;14.55;;;538.10;2406.40;;;;;;5057526;28;20021;-82
2023/06/01 09:06:17;;;;;;;16.17;12.98;;;538.00;2406.40;;;;;;5057344;28;20056;-82
2023/06/01 09:08:44;;;;;;;17.40;13.43;;;537.90;2406.40;;;;;;5057378;28;20025;-83
2023/06/01 09:11:10;;;;;;;16.08;14.38;;;538.00;2406.40;;;;;;5058213;28;20037;-82
2023/06/01 09:13:39;;;;;;;19.85;16.95;;;538.20;2406.40;;;;;;5057545;28;20095;-85
2023/06/01 09:16:05;;;;;;;17.85;14.15;;;;;;;;;;5056220;28;20025;-80
2023/06/01 09:18:32;;;;;;;17.75;16.08;;;;;;;;;;5054980;28;20029;-80
2023/06/01 09:21:15;;;;;;;50.00;16.77;;;;;;;;;;5055671;28;20438;-80
2023/06/01 09:23:44;;;;;;;15.80;14.20;;;;;;;;;;5055227;28;20021;-81
2023/06/01 09:26:12;;;;;;;17.48;13.73;;;538.10;2406.40;;;;;;5056404;28;20028;-80
2023/06/01 09:29:00;;;;;;;14.85;13.38;;;538.10;2406.40;;;;;;5055001;28;20026;-80
2023/06/01 09:31:48;;;;;;;14.90;13.35;;;538.10;2406.40;;;;;;5054629;28;20035;-80
2023/06/01 09:34:19;;;;;;;15.93;13.43;;;538.20;2406.40;;;;;;5056582;28;20029;-79
2023/06/01 09:36:50;;;;;;;20.77;13.02;;;538.50;2406.40;;;;;;5055084;28;20381;-82
2023/06/01 09:39:18;;;;;;;15.07;11.82;;;538.20;2406.40;;;;;;5054963;28;20559;-81
2023/06/01 09:42:06;;;;;;;15.35;11.48;;;538.00;2406.40;;;;;;5055123;28;20055;-81
2023/06/01 09:44:33;;;;;;;16.73;12.18;;;538.20;2406.40;;;;;;5054769;28;20025;-81
2023/06/01 09:47:12;;;;;;;16.58;11.75;;;538.40;2406.40;;;;;;5054466;28;20473;-79
2023/06/01 09:49:40;;;;;;;13.25;11.57;;;538.30;2406.40;;;;;;5056490;28;20025;-81
2023/06/01 09:52:05;;;;;;;17.67;12.38;;;538.50;2406.40;;;;;;5074990;28;20048;-80
2023/06/01 09:55:04;;;;;;;14.65;11.40;;;563.50;2432.00;;;;;;5070062;28;20025;-81
2023/06/01 09:57:30;;;;;;;17.17;11.52;;;563.60;2432.00;;;;;;5054776;28;20471;-81
2023/06/01 09:59:57;;;;;;;14.20;11.10;;;;;;;;;;5054103;28;20078;-80
2023/06/01 10:02:24;;;;;;;16.55;11.65;;;;;;;;;;5054569;28;20024;-81
2023/06/01 10:04:57;;;;;;;17.77;11.70;;;563.50;2432.00;;;;;;5054299;28;20048;-81
2023/06/01 10:07:25;;;;;;;15.38;10.95;;;563.50;2432.00;;;;;;5054958;28;20037;-78
2023/06/01 10:09:55;;;;;;;12.82;11.18;;;563.50;2432.00;;;;;;5054988;28;20405;-82
2023/06/01 10:12:22;;;;;;;14.45;10.73;;;563.80;2432.00;;;;;;5055029;28;20455;-82
2023/06/01 10:14:50;;;;;;;14.55;12.77;;;564.10;2432.00;;;;;;5054306;28;20376;-83
2023/06/01 10:17:16;;;;;;;13.75;12.15;;;564.10;2432.00;;;;;;5054507;28;20032;-82
2023/06/01 10:19:42;;;;;;;15.02;11.65;;;588.80;2432.00;;;;;;5056673;28;20029;-83
2023/06/01 10:22:11;;;;;;;12.13;10.18;;;588.90;2432.00;;;;;;5055284;28;20029;-79
2023/06/01 10:24:41;;;;;;;14.55;10.82;;;588.90;2432.00;;;;;;5049266;28;20465;-80
2023/06/01 10:27:15;;;;;;;16.48;10.85;;;589.20;2432.00;;;;;;5050741;28;20026;-83
2023/06/01 10:29:41;;;;;;;12.48;9.40;;;589.40;2432.00;;;;;;5050899;28;20033;-78
2023/06/01 10:32:45;;;;;;;12.60;8.68;;;589.40;2432.00;;;;;;5035384;28;20033;-82
2023/06/01 10:35:29;;;;;;;11.45;8.95;;;589.60;2432.00;;;;;;5035260;28;20028;-83
2023/06/01 10:38:09;;;;;;;12.23;7.45;;;;;;;;;;5051781;28;20052;-83
2023/06/01 10:40:39;;;;;;;9.30;7.38;;;614.40;2432.00;;;;;;5050862;28;20381;-82
2023/06/01 10:43:08;;;;;;;15.40;9.30;;;589.70;2432.00;;;;;;5051710;28;20025;-83
2023/06/01 10:45:36;;;;;;;11.27;8.55;;;614.50;2432.00;;;;;;5050685;28;20030;-83
2023/06/01 10:48:03;;;;;;;9.95;8.90;;;614.80;2432.00;;;;;;5050475;28;20449;-83
2023/06/01 10:50:29;;;;;;;11.05;9.00;;;615.00;2432.00;;;;;;5054559;28;20040;-86
2023/06/01 10:52:56;;;;;;;11.55;8.60;;;615.30;2432.00;;;;;;5056007;28;20384;-86
2023/06/01 10:55:24;;;;;;;10.65;6.68;;;615.30;2432.00;;;;;;5053861;28;20436;-85
2023/06/01 10:57:50;;;;;;;10.32;6.70;;;;;;;;;;5054797;28;20025;-86
2023/06/01 11:00:26;;;;;;;11.45;6.50;;;;;;;;;;5056293;28;20025;-86
2023/06/01 11:02:57;;;;;;;7.97;6.32;;;;;;;;;;5054873;28;20025;-85
2023/06/01 11:05:38;;;;;;;10.20;6.50;;;;;;;;;;5071149;28;20057;-86
2023/06/01 11:08:06;;;;;;;10.87;6.73;;;;;;;;;;5055802;28;20021;-85
2023/06/01 11:10:55;;;;;;;8.40;5.60;;;;;;;;;;5070794;28;20033;-86
2023/06/01 11:13:34;;;;;;;15.50;6.65;;;640.60;2432.00;;;;;;5070800;28;20033;-86
2023/06/01 11:16:21;;;;;;;9.30;5.35;;;640.70;2432.00;;;;;;5054933;28;20071;-86
2023/06/01 11:19:00;;;;;;;9.27;6.03;;;640.50;2432.00;;;;;;5054863;28;20548;-86
2023/06/01 11:21:40;;;;;;;8.70;6.85;;;640.60;2432.00;;;;;;5070551;28;20032;-86
2023/06/01 11:24:18;;;;;;;9.75;6.40;;;640.90;2432.00;;;;;;5070932;28;20025;-87
2023/06/01 11:26:49;;;;;;;11.40;6.78;;;640.90;2432.00;;;;;;5070602;28;20384;-86
2023/06/01 11:29:23;;;;;;;11.77;6.05;;;640.80;2432.00;;;;;;5070950;28;20043;-86
2023/06/01 11:31:57;;;;;;;8.05;5.72;;;640.60;2432.00;;;;;;5070409;28;20037;-85
2023/06/01 11:34:40;;;;;;;8.43;5.85;;;640.60;2432.00;;;;;;5069098;28;20035;-87
2023/06/01 11:37:15;;;;;;;10.00;7.30;;;640.50;2432.00;;;;;;5070850;28;20470;-87
2023/06/01 11:39:42;;;;;;;9.88;8.25;;;640.40;2432.00;;;;;;5070156;28;20056;-86
2023/06/01 11:42:18;;;;;;;14.15;9.10;;;640.50;2432.00;;;;;;5054308;28;20029;-86
2023/06/01 11:44:49;;;;;;;10.23;8.02;;;640.90;2432.00;;;;;;5069901;28;20496;-87
2023/06/01 11:47:14;;;;;;;10.73;6.65;;;666.10;2432.00;;;;;;5070090;28;20031;-87
2023/06/01 11:49:44;;;;;;;13.93;9.65;;;;;;;;;;5069900;28;20032;-86
2023/06/01 11:52:11;;;;;;;13.90;8.00;;;;;;;;;;5054041;28;20061;-87
2023/06/01 11:54:37;;;;;;;11.70;7.07;;;;;;;;;;5068869;28;20029;-86
2023/06/01 11:57:05;;;;;;;9.52;7.00;;;;;;;;;;5068179;28;20032;-87
2023/06/01 11:59:38;;;;;;;11.32;6.47;;;;;;;;;;5069844;28;20029;-87
2023/06/01 12:02:16;;;;;;;9.20;6.30;;;;;;;;;;5069842;28;20017;-88
2023/06/01 12:04:43;;;;;;;13.75;10.20;;;;;;;;;;5052859;28;20041;-86
2023/06/01 12:07:08;;;;;;;11.82;9.10;;;692.10;2432.00;;;;;;5053136;28;20369;-87
2023/06/01 12:09:35;;;;;;;10.90;7.50;;;716.90;2432.00;;;;;;5052732;28;20032;-84
2023/06/01 12:12:02;;;;;;;12.30;7.95;;;717.20;2432.00;;;;;;5051692;28;20025;-83
2023/06/01 12:14:27;;;;;;;13.52;6.38;;;717.30;2432.00;;;;;;5038666;28;20377;-84
2023/06/01 12:17:00;;;;;;;8.60;5.57;;;717.10;2432.00;;;;;;5045288;28;20040;-84
2023/06/01 12:19:28;;;;;;;11.15;5.93;;;717.30;2432.00;;;;;;5033163;28;20572;-85
2023/06/01 12:21:55;;;;;;;8.77;6.32;;;717.20;2432.00;;;;;;5050235;28;20025;-84